Time;durP1;ratioP1;P1;durP2;ratioP2;P2;SDS_P1;SDS_P2;PMS_P1;PMS_P2;Temp;Humidity;BMP_temperature;BMP_pressure;BME280_temperature;BME280_humidity;BME280_pressure;Samples;Min_cycle;Max_cycle;Signal;HPM_P1;HPM_P2
2023/02/03 00:00:07;;;;;;;61.10;29.80;;;;;;;1.21;72.61;100973.33;107655;1249;108874;-60
2023/02/03 00:02:58;;;;;;;57.30;30.60;;;;;;;1.29;72.72;100979.16;107519;1253;99689;-60
2023/02/03 00:05:28;;;;;;;57.90;31.90;;;;;;;1.36;72.76;100983.23;107529;1251;99079;-59
2023/02/03 00:07:57;;;;;;;58.30;31.30;;;;;;;1.44;72.83;100987.30;107557;1251;112225;-60
2023/02/03 00:10:25;;;;;;;57.60;32.10;;;;;;;1.51;72.80;100990.33;107594;1251;109622;-60
2023/02/03 00:12:55;;;;;;;54.90;30.60;;;;;;;1.58;72.93;100989.98;107644;1250;107811;-59
2023/02/03 00:15:23;;;;;;;57.30;30.10;;;;;;;1.66;72.95;100993.52;107645;1251;99246;-59
2023/02/03 00:17:52;;;;;;;62.70;29.60;;;;;;;1.70;72.75;100997.52;107590;1253;99784;-59
2023/02/03 00:20:20;;;;;;;56.10;29.00;;;;;;;1.74;72.83;100995.58;107614;1251;112196;-60
2023/02/03 00:22:49;;;;;;;56.60;28.30;;;;;;;1.79;72.87;101000.13;107641;1251;109735;-59
2023/02/03 00:25:17;;;;;;;56.20;29.40;;;;;;;1.83;72.69;100999.77;107600;1250;108539;-59
2023/02/03 00:27:46;;;;;;;57.00;29.00;;;;;;;1.81;72.47;101000.59;107622;1250;99192;-60
2023/02/03 00:30:15;;;;;;;57.40;30.10;;;;;;;1.75;72.34;101002.98;107813;1250;99752;-61
2023/02/03 00:32:43;;;;;;;52.70;29.90;;;;;;;1.74;72.32;101007.47;107938;1248;113272;-59
2023/02/03 00:35:12;;;;;;;54.10;30.20;;;;;;;1.73;72.20;101013.17;107921;1248;110143;-61
2023/02/03 00:37:40;;;;;;;52.40;28.80;;;;;;;1.69;72.25;101019.34;107905;1251;108344;-58
2023/02/03 00:40:10;;;;;;;43.50;24.40;;;;;;;1.66;72.34;101022.48;107932;1252;99285;-60
2023/02/03 00:42:38;;;;;;;40.40;22.40;;;;;;;1.65;72.20;101028.19;107936;1248;99282;-60
2023/02/03 00:45:07;;;;;;;33.70;18.20;;;;;;;1.66;72.30;101030.26;107701;1250;113667;-60
2023/02/03 00:47:36;;;;;;;31.60;17.50;;;;;;;1.69;72.34;101023.23;107579;1247;108793;-58
2023/02/03 00:50:06;;;;;;;27.40;15.60;;;;;;;1.72;72.32;101029.13;107879;1247;107919;-60
2023/02/03 00:52:35;;;;;;;30.70;15.80;;;;;;;1.74;72.07;101032.75;107636;1251;99796;-59
2023/02/03 00:55:05;;;;;;;30.40;16.60;;;;;;;1.76;71.93;101036.19;107693;1253;100473;-59
2023/02/03 00:57:33;;;;;;;30.30;15.90;;;;;;;1.79;71.98;101041.02;107654;1250;113484;-59
2023/02/03 01:00:03;;;;;;;21.10;12.30;;;;;;;1.81;72.00;101047.26;107600;1251;109307;-60
2023/02/03 01:02:31;;;;;;;23.90;14.70;;;;;;;1.82;72.21;101055.33;107810;1250;107122;-60
2023/02/03 01:05:00;;;;;;;25.20;14.30;;;;;;;1.86;72.05;101059.59;107600;1251;99191;-60
2023/02/03 01:07:32;;;;;;;29.40;14.90;;;;;;;1.90;71.87;101060.11;107663;1251;99816;-59
2023/02/03 01:10:00;;;;;;;22.70;12.70;;;;;;;1.92;71.68;101066.73;107641;1251;112801;-59
2023/02/03 01:12:29;;;;;;;24.60;12.50;;;;;;;1.94;71.44;101064.50;107635;1251;110121;-60
2023/02/03 01:14:58;;;;;;;22.40;11.40;;;;;;;1.96;71.46;101065.46;107744;1248;108800;-60
2023/02/03 01:17:27;;;;;;;21.20;11.00;;;;;;;1.99;71.30;101070.45;107870;1248;99158;-59
2023/02/03 01:19:55;;;;;;;22.50;12.00;;;;;;;2.02;71.13;101066.98;107665;1251;98320;-60
2023/02/03 01:22:24;;;;;;;19.50;10.70;;;;;;;2.04;71.01;101069.88;107690;1250;114620;-59
2023/02/03 01:24:52;;;;;;;19.70;11.30;;;;;;;2.05;71.07;101066.98;107724;1250;110103;-60
2023/02/03 01:27:20;;;;;;;19.80;10.50;;;;;;;2.07;70.85;101066.90;107726;1251;108879;-61
2023/02/03 01:29:49;;;;;;;18.50;10.20;;;;;;;2.09;70.98;101067.86;107642;1251;99205;-59
2023/02/03 01:32:17;;;;;;;18.00;9.30;;;;;;;2.11;70.87;101066.17;107734;1249;99737;-60
2023/02/03 01:34:46;;;;;;;18.70;9.50;;;;;;;2.13;70.74;101067.33;107736;1251;112936;-61
2023/02/03 01:37:16;;;;;;;15.70;9.50;;;;;;;2.14;70.70;101066.01;107655;1250;109401;-60
2023/02/03 01:39:44;;;;;;;16.60;8.90;;;;;;;2.16;70.81;101066.09;107660;1251;108725;-60
2023/02/03 01:42:14;;;;;;;15.80;7.90;;;;;;;2.18;70.59;101065.46;107667;1251;99245;-60
2023/02/03 01:44:44;;;;;;;11.90;6.90;;;;;;;2.21;70.79;101062.66;107811;1250;99164;-59
2023/02/03 01:47:17;;;;;;;13.50;6.70;;;;;;;2.25;70.84;101065.19;107655;1250;114368;-60
2023/02/03 01:50:03;;;;;;;12.30;7.00;;;;;;;2.26;70.89;101064.92;107699;1251;110027;-60
2023/02/03 01:52:31;;;;;;;7.00;5.00;;;;;;;2.26;71.10;101062.79;107647;1251;109467;-60
2023/02/03 01:55:04;;;;;;;8.00;4.10;;;;;;;2.28;71.22;101067.50;107676;1251;99176;-60
2023/02/03 01:57:37;;;;;;;5.40;3.20;;;;;;;2.30;71.54;101072.31;107652;1251;99199;-59
2023/02/03 02:00:07;;;;;;;6.40;3.70;;;;;;;2.33;71.65;101070.39;107751;1251;113776;-60
2023/02/03 02:02:44;;;;;;;3.50;2.80;;;;;;;2.37;71.74;101071.30;107599;1250;110110;-60
2023/02/03 02:05:27;;;;;;;2.20;2.00;;;;;;;2.39;71.79;101067.27;107663;1251;109003;-59
2023/02/03 02:07:59;;;;;;;4.00;2.40;;;;;;;2.40;71.85;101067.39;107746;1249;99224;-64
2023/02/03 02:10:30;;;;;;;2.70;1.90;;;;;;;2.43;71.97;101065.70;107683;1251;99354;-59
2023/02/03 02:13:01;;;;;;;2.50;1.70;;;;;;;2.44;72.11;101068.82;107649;1251;112816;-59
2023/02/03 02:15:39;;;;;;;2.40;2.10;;;;;;;2.45;72.04;101066.10;107681;1250;109251;-59
2023/02/03 02:18:36;;;;;;;3.40;1.70;;;;;;;2.47;72.02;101069.00;107647;1250;108713;-60
2023/02/03 02:21:20;;;;;;;4.90;2.60;;;;;;;2.47;72.13;101071.86;107579;1250;99169;-60
2023/02/03 02:24:13;;;;;;;4.40;2.70;;;;;;;2.47;72.19;101068.83;107703;1250;99711;-60
2023/02/03 02:26:54;;;;;;;7.00;2.10;;;;;;;2.47;72.02;101076.95;107744;1250;112843;-60
2023/02/03 02:29:35;;;;;;;2.80;1.70;;;;;;;2.48;72.34;101079.59;107696;1250;109707;-60
2023/02/03 02:32:29;;;;;;;2.70;2.10;;;;;;;2.48;72.43;101082.75;107722;1249;108759;-59
2023/02/03 02:35:09;;;;;;;3.10;2.10;;;;;;;2.49;72.30;101086.94;107710;1250;99282;-60
2023/02/03 02:37:53;;;;;;;1.80;1.70;;;;;;;2.51;72.30;101088.64;107707;1249;99714;-59
2023/02/03 02:40:52;;;;;;;3.30;2.00;;;;;;;2.52;72.42;101090.76;107689;1251;113157;-59
2023/02/03 02:43:48;;;;;;;2.10;1.90;;;;;;;2.52;72.53;101093.76;107656;1250;109778;-61
2023/02/03 02:46:26;;;;;;;2.40;2.20;;;;;;;2.52;72.46;101096.59;107659;1250;108552;-59
2023/02/03 02:49:21;;;;;;;3.30;1.80;;;;;;;2.54;72.53;101098.98;107744;1250;99199;-59
2023/02/03 02:51:52;;;;;;;3.00;2.10;;;;;;;2.57;72.52;101101.30;107664;1250;99038;-60
2023/02/03 02:54:24;;;;;;;3.50;2.10;;;;;;;2.58;72.27;101104.27;107753;1250;113768;-59
2023/02/03 02:56:57;;;;;;;4.90;2.10;;;;;;;2.62;72.44;101108.30;107713;1254;109647;-59
2023/02/03 02:59:27;;;;;;;4.90;2.40;;;;;;;2.64;72.19;101112.28;107686;1253;109129;-59
2023/02/03 03:01:57;;;;;;;3.10;2.20;;;;;;;2.64;72.25;101114.75;107641;1250;99278;-60
2023/02/03 03:04:29;;;;;;;3.00;2.50;;;;;;;2.63;72.33;101116.02;107750;1250;99172;-60
2023/02/03 03:07:05;;;;;;;3.00;2.30;;;;;;;2.63;72.06;101115.33;107727;1250;113484;-62
2023/02/03 03:09:56;;;;;;;3.80;2.40;;;;;;;2.66;72.08;101117.83;107668;1250;110885;-60
2023/02/03 03:12:43;;;;;;;3.80;2.60;;;;;;;2.67;72.20;101121.15;107624;1250;108425;-60
2023/02/03 03:15:21;;;;;;;4.70;3.90;;;;;;;2.67;71.79;101121.33;107647;1250;99198;-60
2023/02/03 03:18:05;;;;;;;3.80;2.70;;;;;;;2.67;71.67;101122.04;107804;1249;99688;-60
2023/02/03 03:20:36;;;;;;;3.00;2.50;;;;;;;2.70;71.53;101125.64;107669;1251;112566;-60
2023/02/03 03:23:25;;;;;;;5.20;3.50;;;;;;;2.70;71.60;101131.43;107687;1251;107682;-59
2023/02/03 03:26:28;;;;;;;5.80;3.20;;;;;;;2.71;71.48;101137.45;107656;1250;108207;-59
2023/02/03 03:29:23;;;;;;;4.80;3.40;;;;;;;2.72;72.15;101138.48;107626;1250;99253;-59
2023/02/03 03:31:52;;;;;;;8.10;3.60;;;;;;;2.71;72.57;101132.99;107693;1250;99054;-60
2023/02/03 03:34:20;;;;;;;9.40;3.50;;;;;;;2.70;73.03;101136.79;107647;1250;112716;-60
2023/02/03 03:37:13;;;;;;;5.90;3.30;;;;;;;2.66;73.20;101136.09;107707;1249;109694;-59
2023/02/03 03:39:47;;;;;;;6.20;4.10;;;;;;;2.60;73.80;101139.39;107704;1250;108233;-60
2023/02/03 03:42:38;;;;;;;7.00;4.10;;;;;;;2.56;74.00;101140.46;107674;1249;99175;-60
2023/02/03 03:45:24;;;;;;;6.70;4.20;;;;;;;2.52;74.48;101142.44;107700;1250;100432;-59
2023/02/03 03:47:52;;;;;;;6.60;3.40;;;;;;;2.47;74.93;101141.60;107744;1250;113697;-58
2023/02/03 03:50:25;;;;;;;7.30;3.50;;;;;;;2.45;74.53;101142.77;107694;1253;109250;-59
2023/02/03 03:52:56;;;;;;;5.80;4.10;;;;;;;2.44;74.43;101147.58;107671;1249;108703;-59
2023/02/03 03:55:27;;;;;;;8.80;4.70;;;;;;;2.44;74.26;101144.75;107655;1251;99230;-59
2023/02/03 03:58:02;;;;;;;9.40;5.30;;;;;;;2.46;74.45;101148.59;107685;1251;99074;-59
2023/02/03 04:00:34;;;;;;;12.70;5.80;;;;;;;2.46;74.34;101153.16;107681;1250;113098;-60
2023/02/03 04:03:13;;;;;;;8.00;5.00;;;;;;;2.46;74.24;101156.70;107659;1253;108654;-59
2023/02/03 04:05:42;;;;;;;9.00;4.30;;;;;;;2.46;74.22;101160.59;107711;1250;108729;-57
2023/02/03 04:08:10;;;;;;;13.80;7.20;;;;;;;2.47;74.32;101166.04;107654;1249;99329;-59
2023/02/03 04:10:41;;;;;;;9.00;3.90;;;;;;;2.46;74.65;101162.89;107697;1250;99195;-58
2023/02/03 04:13:11;;;;;;;7.60;5.10;;;;;;;2.44;74.89;101167.94;107687;1251;113835;-60
2023/02/03 04:15:39;;;;;;;6.20;3.50;;;;;;;2.42;75.13;101171.06;107691;1253;110171;-60
2023/02/03 04:18:11;;;;;;;5.20;3.20;;;;;;;2.40;75.30;101171.55;107696;1251;108782;-61
2023/02/03 04:20:39;;;;;;;4.10;2.90;;;;;;;2.38;75.35;101179.75;107706;1250;99205;-60
2023/02/03 04:23:08;;;;;;;8.60;3.10;;;;;;;2.32;75.68;101181.77;107772;1250;100014;-60
2023/02/03 04:25:37;;;;;;;6.60;4.10;;;;;;;2.27;76.19;101184.52;107695;1249;113126;-58
2023/02/03 04:28:05;;;;;;;6.00;3.90;;;;;;;2.25;76.40;101188.70;107666;1250;109815;-59
2023/02/03 04:30:34;;;;;;;5.10;3.90;;;;;;;2.24;76.34;101187.48;107625;1250;108158;-60
2023/02/03 04:33:02;;;;;;;5.60;3.70;;;;;;;2.22;76.64;101191.30;107682;1250;99230;-60
2023/02/03 04:35:30;;;;;;;9.10;4.60;;;;;;;2.19;76.62;101186.83;107695;1250;100267;-59
2023/02/03 04:37:59;;;;;;;11.90;6.40;;;;;;;2.21;76.43;101191.16;107688;1250;113096;-59
2023/02/03 04:40:27;;;;;;;5.00;3.70;;;;;;;2.22;76.67;101191.82;107655;1250;108703;-61
2023/02/03 04:42:56;;;;;;;5.30;4.30;;;;;;;2.19;76.71;101193.55;107684;1253;109431;-59
2023/02/03 04:45:24;;;;;;;6.80;4.20;;;;;;;2.18;76.51;101186.70;107645;1251;99497;-58
2023/02/03 04:47:53;;;;;;;6.90;4.70;;;;;;;2.19;76.49;101191.09;107661;1249;99723;-58
2023/02/03 04:50:21;;;;;;;10.70;6.50;;;;;;;2.20;76.30;101185.20;107650;1250;114018;-59
2023/02/03 04:52:50;;;;;;;7.30;4.30;;;;;;;2.22;76.01;101184.77;107789;1250;110736;-59
2023/02/03 04:55:19;;;;;;;8.60;3.90;;;;;;;2.21;75.89;101180.54;107642;1250;109355;-59
2023/02/03 04:57:47;;;;;;;8.80;4.60;;;;;;;2.23;75.18;101187.34;107630;1250;100632;-60
2023/02/03 05:00:16;;;;;;;5.90;3.60;;;;;;;2.25;75.02;101191.51;107665;1250;99859;-60
2023/02/03 05:02:44;;;;;;;5.90;2.80;;;;;;;2.26;74.46;101189.89;107668;1250;112112;-59
2023/02/03 05:05:13;;;;;;;7.60;4.40;;;;;;;2.26;74.81;101189.35;107631;1250;108245;-60
2023/02/03 05:07:41;;;;;;;9.20;5.10;;;;;;;2.25;74.91;101189.21;107638;1253;108690;-59
2023/02/03 05:10:10;;;;;;;8.00;4.90;;;;;;;2.24;75.03;101193.85;107628;1250;99227;-59
2023/02/03 05:12:38;;;;;;;6.90;3.90;;;;;;;2.25;74.92;101200.55;107664;1250;99720;-58
2023/02/03 05:15:07;;;;;;;8.50;4.80;;;;;;;2.22;74.92;101213.59;107655;1250;112059;-60
2023/02/03 05:17:38;;;;;;;11.60;4.20;;;;;;;2.21;74.79;101222.15;107670;1250;109880;-60
2023/02/03 05:20:08;;;;;;;4.90;3.30;;;;;;;2.22;74.42;101226.15;107645;1251;107695;-59
2023/02/03 05:22:36;;;;;;;8.60;4.10;;;;;;;2.23;74.37;101232.34;107655;1250;99247;-60
2023/02/03 05:25:06;;;;;;;6.90;3.60;;;;;;;2.21;74.17;101235.07;107615;1254;99266;-59
2023/02/03 05:27:35;;;;;;;6.50;3.70;;;;;;;2.20;73.90;101246.80;107655;1250;113909;-59
2023/02/03 05:30:05;;;;;;;5.50;4.00;;;;;;;2.19;73.71;101251.61;107644;1250;110050;-59
2023/02/03 05:32:33;;;;;;;7.80;4.90;;;;;;;2.18;74.09;101261.36;107670;1250;108205;-61
2023/02/03 05:35:01;;;;;;;6.90;4.20;;;;;;;2.19;74.14;101271.79;107674;1250;99198;-58
2023/02/03 05:37:30;;;;;;;11.00;4.50;;;;;;;2.20;74.66;101277.56;107736;1249;99089;-59
2023/02/03 05:41:51;;;;;;;9.50;4.70;;;;;;;2.23;74.94;101283.65;107651;1250;113070;-58
2023/02/03 05:42:48;;;;;;;7.10;4.40;;;;;;;2.23;74.76;101282.04;107725;1250;110084;-58
2023/02/03 05:45:17;;;;;;;7.50;5.00;;;;;;;2.22;74.60;101287.02;107635;1250;106387;-59
2023/02/03 05:47:45;;;;;;;12.90;6.90;;;;;;;2.24;74.79;101289.80;107651;1249;99182;-59
2023/02/03 05:50:14;;;;;;;13.00;5.10;;;;;;;2.23;74.57;101296.76;107697;1251;99060;-59
2023/02/03 05:52:42;;;;;;;10.60;5.80;;;;;;;2.21;74.39;101298.77;107667;1249;113629;-58
2023/02/03 05:55:10;;;;;;;9.00;4.90;;;;;;;2.20;74.20;101297.40;107629;1250;110116;-59
2023/02/03 05:57:39;;;;;;;12.70;5.40;;;;;;;2.17;73.86;101298.92;107676;1253;107908;-58
2023/02/03 06:00:08;;;;;;;9.10;4.50;;;;;;;2.16;73.79;101302.67;107643;1250;99355;-59
2023/02/03 06:02:40;;;;;;;8.90;4.50;;;;;;;2.15;73.15;101305.23;107664;1250;99071;-60
2023/02/03 06:05:08;;;;;;;12.90;6.00;;;;;;;2.12;72.88;101308.17;107652;1250;114500;-59
2023/02/03 06:07:36;;;;;;;10.80;4.90;;;;;;;2.10;72.44;101310.93;107686;1250;109173;-60
2023/02/03 06:10:05;;;;;;;8.60;5.00;;;;;;;2.11;72.45;101313.55;107644;1250;108245;-60
2023/02/03 06:12:34;;;;;;;9.80;5.10;;;;;;;2.13;71.92;101314.53;107618;1250;99285;-58
2023/02/03 06:15:03;;;;;;;11.10;3.70;;;;;;;2.15;71.64;101316.02;107654;1250;99169;-61
2023/02/03 06:17:31;;;;;;;7.40;4.10;;;;;;;2.17;71.05;101319.98;107677;1251;113739;-59
2023/02/03 06:20:01;;;;;;;7.90;4.20;;;;;;;2.19;71.18;101317.09;107663;1250;109316;-59
2023/02/03 06:22:29;;;;;;;7.40;3.90;;;;;;;2.23;71.15;101320.27;107676;1251;108145;-59
2023/02/03 06:24:58;;;;;;;5.80;3.50;;;;;;;2.27;71.04;101321.67;107639;1251;99096;-59
2023/02/03 06:27:26;;;;;;;5.50;3.20;;;;;;;2.32;70.66;101323.59;107655;1251;99073;-60
2023/02/03 06:29:55;;;;;;;9.60;4.70;;;;;;;2.37;70.56;101328.33;107642;1250;113851;-61
2023/02/03 06:32:24;;;;;;;6.00;3.80;;;;;;;2.41;70.21;101330.45;107712;1250;109241;-60
2023/02/03 06:34:52;;;;;;;8.00;4.20;;;;;;;2.46;70.46;101332.70;107656;1250;107540;-59
2023/02/03 06:37:20;;;;;;;6.60;4.20;;;;;;;2.49;69.93;101336.44;107655;1250;99185;-60
2023/02/03 06:39:51;;;;;;;6.50;4.20;;;;;;;2.52;70.04;101332.95;107676;1250;99203;-59
2023/02/03 06:42:20;;;;;;;13.00;4.80;;;;;;;2.57;70.06;101337.33;107691;1250;112636;-60
2023/02/03 06:44:49;;;;;;;6.00;4.00;;;;;;;2.58;69.06;101344.36;107662;1250;110128;-59
2023/02/03 06:47:17;;;;;;;10.30;4.40;;;;;;;2.57;68.61;101339.80;107619;1251;108129;-59
2023/02/03 06:49:46;;;;;;;7.90;4.40;;;;;;;2.58;68.59;101351.44;107651;1250;99191;-60
2023/02/03 06:52:14;;;;;;;8.90;3.90;;;;;;;2.58;68.46;101354.65;107691;1251;99815;-58
2023/02/03 06:54:43;;;;;;;3.80;3.10;;;;;;;2.59;67.59;101355.48;107522;1251;112733;-59
2023/02/03 06:57:11;;;;;;;3.90;2.70;;;;;;;2.57;66.14;101360.52;107637;1250;109529;-59
2023/02/03 06:59:40;;;;;;;8.80;3.40;;;;;;;2.55;65.57;101372.33;107666;1251;108152;-60
2023/02/03 07:02:10;;;;;;;4.30;3.40;;;;;;;2.53;65.72;101365.69;107650;1250;99164;-59
2023/02/03 07:04:39;;;;;;;4.90;3.00;;;;;;;2.51;66.08;101369.67;107670;1250;99218;-59
2023/02/03 07:07:07;;;;;;;9.80;4.40;;;;;;;2.47;65.88;101369.85;107634;1253;112385;-61
2023/02/03 07:09:35;;;;;;;4.40;2.90;;;;;;;2.39;65.61;101374.27;107607;1250;109994;-61
2023/02/03 07:12:05;;;;;;;5.10;2.50;;;;;;;2.38;66.08;101369.88;107639;1250;107213;-60
2023/02/03 07:14:34;;;;;;;6.00;3.20;;;;;;;2.37;65.96;101376.14;107706;1253;99077;-60
2023/02/03 07:17:03;;;;;;;3.80;2.70;;;;;;;2.38;66.44;101370.08;107661;1250;99341;-61
2023/02/03 07:19:31;;;;;;;10.90;3.30;;;;;;;2.38;66.70;101366.14;107652;1251;112782;-59
2023/02/03 07:21:59;;;;;;;7.00;2.90;;;;;;;2.41;66.90;101360.73;107663;1253;110204;-59
2023/02/03 07:24:28;;;;;;;7.10;3.00;;;;;;;2.44;67.05;101355.44;107532;1251;109787;-60
2023/02/03 07:26:56;;;;;;;6.60;3.80;;;;;;;2.49;67.09;101356.09;107584;1250;99195;-58
2023/02/03 07:29:24;;;;;;;4.40;3.20;;;;;;;2.52;66.97;101354.23;107617;1254;99743;-60
2023/02/03 07:31:53;;;;;;;4.40;3.10;;;;;;;2.54;67.07;101356.05;107691;1250;113330;-58
2023/02/03 07:34:22;;;;;;;3.60;2.50;;;;;;;2.57;67.18;101358.59;107734;1250;110356;-59
2023/02/03 07:36:50;;;;;;;6.60;3.20;;;;;;;2.61;67.41;101356.43;107627;1250;108148;-59
2023/02/03 07:39:19;;;;;;;4.80;3.00;;;;;;;2.67;67.35;101362.37;107597;1250;99067;-60
2023/02/03 07:41:47;;;;;;;4.40;3.00;;;;;;;2.70;67.43;101364.89;107655;1249;99077;-61
2023/02/03 07:44:16;;;;;;;5.00;3.40;;;;;;;2.76;67.16;101362.69;107607;1249;112512;-61
2023/02/03 07:46:45;;;;;;;5.50;3.40;;;;;;;2.75;66.40;101363.61;107544;1250;109530;-59
2023/02/03 07:49:14;;;;;;;4.60;2.70;;;;;;;2.80;66.18;101355.23;107600;1251;108591;-60
2023/02/03 07:51:42;;;;;;;6.00;2.70;;;;;;;2.85;65.47;101354.27;107613;1250;99265;-59
2023/02/03 07:54:10;;;;;;;4.20;3.10;;;;;;;2.85;65.16;101353.42;107562;1250;99813;-60
2023/02/03 07:56:39;;;;;;;4.70;2.80;;;;;;;2.87;65.11;101355.27;107593;1250;113259;-60
2023/02/03 07:59:07;;;;;;;4.30;3.40;;;;;;;2.90;64.85;101360.79;107587;1250;110111;-60
2023/02/03 08:01:35;;;;;;;5.80;3.20;;;;;;;2.92;65.19;101366.52;107520;1251;108612;-61
2023/02/03 08:04:04;;;;;;;4.80;3.10;;;;;;;2.95;65.28;101365.70;107663;1250;99285;-60
2023/02/03 08:06:33;;;;;;;5.80;2.90;;;;;;;3.00;65.76;101360.30;107550;1251;99086;-60
2023/02/03 08:09:02;;;;;;;5.80;3.40;;;;;;;3.12;65.60;101361.52;107604;1249;113372;-58
2023/02/03 08:11:31;;;;;;;5.60;3.70;;;;;;;3.23;66.11;101363.98;107523;1253;110187;-59
2023/02/03 08:14:00;;;;;;;4.10;3.40;;;;;;;3.38;65.92;101366.31;107536;1249;108547;-60
2023/02/03 08:16:28;;;;;;;6.20;3.10;;;;;;;3.53;65.31;101365.40;107505;1254;99174;-60
2023/02/03 08:18:57;;;;;;;5.00;3.20;;;;;;;3.70;64.73;101362.06;107648;1253;99708;-58
2023/02/03 08:21:25;;;;;;;6.30;4.10;;;;;;;3.79;64.13;101366.61;107520;1253;112933;-60
2023/02/03 08:23:54;;;;;;;5.70;3.20;;;;;;;3.87;62.98;101364.05;107707;1249;109226;-60
2023/02/03 08:26:23;;;;;;;7.10;3.80;;;;;;;3.98;62.56;101368.14;107692;1249;108439;-59
2023/02/03 08:28:51;;;;;;;4.70;3.00;;;;;;;4.02;62.97;101368.42;107693;1250;99259;-58
2023/02/03 08:31:20;;;;;;;7.60;3.70;;;;;;;4.10;62.58;101375.33;107680;1250;99749;-60
2023/02/03 08:33:49;;;;;;;4.90;3.00;;;;;;;4.17;61.60;101384.02;107703;1250;113762;-60
2023/02/03 08:36:17;;;;;;;4.50;2.60;;;;;;;4.20;61.34;101390.21;107689;1251;109233;-59
2023/02/03 08:38:45;;;;;;;4.50;2.70;;;;;;;4.15;60.61;101383.73;107673;1250;107685;-59
2023/02/03 08:41:17;;;;;;;4.40;2.60;;;;;;;4.25;60.94;101391.76;107571;1249;99196;-60
2023/02/03 08:43:45;;;;;;;5.80;3.00;;;;;;;4.41;60.75;101387.92;107596;1250;99726;-60
2023/02/03 08:46:13;;;;;;;3.30;2.50;;;;;;;4.47;60.50;101388.65;107579;1250;113068;-59
2023/02/03 08:48:42;;;;;;;5.30;3.30;;;;;;;4.51;60.32;101389.34;107594;1253;109940;-58
2023/02/03 08:51:13;;;;;;;5.50;3.20;;;;;;;4.50;60.80;101389.02;107562;1253;109785;-59
2023/02/03 08:53:42;;;;;;;6.30;3.00;;;;;;;4.50;60.31;101387.42;107679;1250;99891;-63
2023/02/03 08:56:11;;;;;;;5.10;3.00;;;;;;;4.55;58.61;101385.04;107541;1250;99733;-59
2023/02/03 08:58:39;;;;;;;5.70;2.90;;;;;;;4.56;59.08;101388.21;107606;1253;112561;-59
2023/02/03 09:01:14;;;;;;;7.70;3.30;;;;;;;4.66;59.79;101389.41;107720;1250;110022;-59
2023/02/03 09:03:43;;;;;;;8.50;4.10;;;;;;;4.84;59.45;101398.80;107544;1250;107835;-59
2023/02/03 09:06:15;;;;;;;8.80;4.30;;;;;;;4.98;58.08;101398.55;107570;1250;99172;-60
2023/02/03 09:08:45;;;;;;;7.60;4.30;;;;;;;5.12;57.28;101392.25;107588;1253;99099;-59
2023/02/03 09:11:17;;;;;;;10.00;4.50;;;;;;;5.49;57.10;101396.95;107575;1250;113739;-59
2023/02/03 09:13:45;;;;;;;8.40;4.00;;;;;;;5.91;56.25;101397.97;107589;1250;110163;-59
2023/02/03 09:16:20;;;;;;;4.70;2.60;;;;;;;6.20;54.86;101389.80;107706;1250;108181;-60
2023/02/03 09:18:48;;;;;;;4.20;2.80;;;;;;;6.52;52.98;101389.90;107603;1250;99788;-60
2023/02/03 09:21:17;;;;;;;6.80;3.20;;;;;;;6.99;52.80;101393.35;107641;1250;99816;-62
2023/02/03 09:24:07;;;;;;;6.40;3.40;;;;;;;7.55;51.86;101389.04;107624;1250;114537;-59
2023/02/03 09:26:36;;;;;;;5.20;3.00;;;;;;;8.54;50.47;101381.27;107586;1250;109109;-60
2023/02/03 09:29:06;;;;;;;5.70;3.20;;;;;;;8.61;48.70;101387.59;107502;1254;108591;-60
2023/02/03 09:31:35;;;;;;;4.30;2.50;;;;;;;8.95;48.06;101387.02;107542;1250;99176;-58
2023/02/03 09:34:03;;;;;;;9.90;2.90;;;;;;;8.08;45.41;101393.94;107557;1254;99267;-59
2023/02/03 09:36:32;;;;;;;3.50;2.30;;;;;;;8.22;46.53;101386.89;107552;1250;113152;-60
2023/02/03 09:39:01;;;;;;;4.00;2.00;;;;;;;9.23;45.99;101379.61;107568;1250;109124;-59
2023/02/03 09:41:48;;;;;;;7.20;1.80;;;;;;;9.45;45.08;101378.21;107547;1250;108648;-60
2023/02/03 09:44:26;;;;;;;4.30;1.90;;;;;;;8.85;45.91;101380.36;107563;1253;99275;-60
2023/02/03 09:47:01;;;;;;;6.00;3.10;;;;;;;8.12;45.28;101394.91;107570;1250;99817;-60
2023/02/03 09:50:04;;;;;;;5.10;2.60;;;;;;;7.83;46.83;101396.65;107537;1251;113451;-61
2023/02/03 09:52:36;;;;;;;2.50;1.90;;;;;;;8.26;45.99;101388.58;107640;1253;109070;-60
2023/02/03 09:55:10;;;;;;;9.40;3.30;;;;;;;8.02;44.83;101387.19;107677;1251;106699;-60
2023/02/03 09:57:55;;;;;;;6.50;2.40;;;;;;;8.19;45.55;101379.98;107701;1251;99221;-60
2023/02/03 10:00:45;;;;;;;3.40;2.00;;;;;;;7.79;45.11;101383.38;107678;1251;99184;-61
2023/02/03 10:03:39;;;;;;;6.50;2.60;;;;;;;7.33;46.24;101394.05;107677;1251;114211;-60
2023/02/03 10:06:23;;;;;;;7.30;3.00;;;;;;;6.92;47.05;101396.98;107642;1251;108055;-60
2023/02/03 10:09:23;;;;;;;8.50;2.50;;;;;;;6.56;46.56;101402.27;107691;1255;108184;-58
2023/02/03 10:12:15;;;;;;;13.10;2.60;;;;;;;6.14;46.96;101395.49;107627;1250;99281;-59
2023/02/03 10:15:01;;;;;;;6.90;2.30;;;;;;;5.95;47.37;101390.75;107538;1250;99185;-61
2023/02/03 10:17:35;;;;;;;4.60;2.50;;;;;;;5.81;47.72;101386.40;107567;1250;112887;-61
2023/02/03 10:20:12;;;;;;;5.40;2.60;;;;;;;5.71;48.52;101387.89;107553;1250;109592;-60
2023/02/03 10:22:52;;;;;;;9.10;2.70;;;;;;;5.70;48.90;101379.21;107581;1250;108726;-61
2023/02/03 10:25:39;;;;;;;6.90;3.00;;;;;;;5.71;48.97;101378.44;107551;1250;99068;-59
2023/02/03 10:28:17;;;;;;;9.80;3.30;;;;;;;5.67;48.71;101376.70;107561;1250;99068;-60
2023/02/03 10:30:58;;;;;;;6.00;3.00;;;;;;;5.59;48.31;101375.20;107587;1250;112886;-59
2023/02/03 10:33:29;;;;;;;8.30;2.60;;;;;;;5.47;48.65;101380.36;107527;1250;108936;-60
2023/02/03 10:36:00;;;;;;;4.80;2.60;;;;;;;5.39;48.73;101381.53;107502;1254;109206;-60
2023/02/03 10:38:38;;;;;;;5.50;2.60;;;;;;;5.36;49.41;101376.73;107509;1250;99305;-60
2023/02/03 10:41:07;;;;;;;5.80;3.10;;;;;;;5.36;50.43;101384.90;107624;1250;99094;-60
2023/02/03 10:43:51;;;;;;;3.50;2.30;;;;;;;5.25;50.92;101385.66;107574;1251;112652;-59
2023/02/03 10:46:35;;;;;;;4.30;2.50;;;;;;;5.16;51.40;101380.48;107250;1249;109730;-60
2023/02/03 10:49:04;;;;;;;9.50;4.20;;;;;;;5.84;51.55;101380.15;107662;1249;108631;-59
2023/02/03 10:51:40;;;;;;;5.30;2.80;;;;;;;7.04;50.97;101376.80;107540;1250;100035;-61
2023/02/03 10:54:28;;;;;;;8.70;2.80;;;;;;;7.68;49.57;101373.55;107572;1250;99727;-59
2023/02/03 10:57:05;;;;;;;7.40;2.20;;;;;;;8.14;48.56;101372.11;107554;1250;113091;-60
2023/02/03 10:59:36;;;;;;;4.60;2.20;;;;;;;8.80;46.77;101366.27;107525;1251;110096;-59
2023/02/03 11:02:19;;;;;;;6.40;2.80;;;;;;;9.59;43.85;101357.11;107509;1250;108379;-60
2023/02/03 11:05:08;;;;;;;5.80;2.10;;;;;;;10.43;40.99;101352.02;107497;1250;99165;-58
2023/02/03 11:07:37;;;;;;;5.50;2.50;;;;;;;11.12;39.28;101345.95;107537;1250;99731;-59
2023/02/03 11:10:33;;;;;;;9.00;2.60;;;;;;;11.59;38.85;101352.91;107574;1250;113084;-60
2023/02/03 11:13:18;;;;;;;4.20;2.00;;;;;;;12.56;39.66;101348.29;107534;1250;109114;-59
2023/02/03 11:16:03;;;;;;;5.90;2.20;;;;;;;13.44;36.46;101341.00;107539;1250;108857;-60
2023/02/03 11:18:51;;;;;;;7.80;3.40;;;;;;;13.99;36.53;101346.39;107537;1250;99291;-59
2023/02/03 11:21:37;;;;;;;16.00;2.70;;;;;;;14.70;32.44;101337.14;107516;1250;100202;-61
2023/02/03 11:24:24;;;;;;;5.70;1.50;;;;;;;14.89;30.05;101342.94;107673;1253;112750;-60
2023/02/03 11:27:13;;;;;;;3.90;1.20;;;;;;;15.13;30.55;101339.61;107591;1250;109315;-60
2023/02/03 11:29:46;;;;;;;8.00;1.50;;;;;;;15.35;29.32;101341.23;107454;1254;108545;-58
2023/02/03 11:32:42;;;;;;;8.50;1.50;;;;;;;15.00;30.90;101341.89;107494;1250;99250;-58
2023/02/03 11:35:20;;;;;;;2.80;1.20;;;;;;;14.56;29.64;101345.34;107531;1250;99071;-59
2023/02/03 11:38:00;;;;;;;5.90;1.70;;;;;;;13.74;30.50;101344.73;107532;1250;113594;-59
2023/02/03 11:40:29;;;;;;;4.30;2.20;;;;;;;12.87;31.01;101341.93;107496;1250;109930;-59
2023/02/03 11:43:02;;;;;;;3.70;2.40;;;;;;;12.67;31.57;101343.69;107527;1250;108245;-60